Domov
logo

Vyskúšajte rýchly a spoľahlivý webhosting

Aktuálne počasie

LZIB - letisko Bratislava

Hodnoty namerané: 29.07.2021, 04:00 SELČ
Aktuálny čas: 29.07.2021, 04:21 SELČ
Aktualizované: pred 21 min.
Teplota: 19°C
Rosný bod: 17°C
Vietor: 13 km/h 290° (ZSZ)
Dohľadnosť: viac ako 10 km
Stav počasia: bez zrážok
Oblačnosť: jasno
Vlhkosť vzduchu: 88 %
Tlak vzduchu: 1015 hPa
METAR: LZIB 290200Z 29007KT CAVOK 19/17 Q1015

LZKZ - letisko Košice

Hodnoty namerané: 29.07.2021, 04:00 SELČ
Aktuálny čas: 29.07.2021, 04:21 SELČ
Aktualizované: pred 21 min.
Teplota: 21°C
Rosný bod: 17°C
Vietor: 17 km/h 30° (SSV)
Dohľadnosť: viac ako 10 km
Stav počasia: bez zrážok
Oblačnosť: jasno
Vlhkosť vzduchu: 78 %
Tlak vzduchu: 1011 hPa
METAR: LZKZ 290200Z 03009KT CAVOK 21/17 Q1011

LZPP - letisko Piešťany

Hodnoty namerané: 29.07.2021, 04:00 SELČ
Aktuálny čas: 29.07.2021, 04:21 SELČ
Aktualizované: pred 21 min.
Teplota: 19°C
Rosný bod: 18°C
Vietor: 13 km/h 320° (SZ)
Dohľadnosť: viac ako 10 km
Stav počasia: bez zrážok
Oblačnosť: zamračené na 1067 m
Základňa oblačnosti: 1067 m
Vlhkosť vzduchu: 94 %
Tlak vzduchu: 1014 hPa
METAR: LZPP 290200Z AUTO 32007KT 9999 OVC035/// 19/18 Q1014

LZTT - letisko Poprad Tatry

Hodnoty namerané: 29.07.2021, 04:00 SELČ
Aktuálny čas: 29.07.2021, 04:21 SELČ
Aktualizované: pred 21 min.
Teplota: 16°C
Rosný bod: 15°C
Vietor: premenlivý 6 km/h
Dohľadnosť: viac ako 10 km
Stav počasia: bez zrážok
Oblačnosť: malá oblačnosť na 488 m
Základňa oblačnosti: 488 m
Vlhkosť vzduchu: 94 %
Tlak vzduchu: 1014 hPa
METAR: LZTT 290200Z VRB03KT 9999 FEW016 16/15 Q1014

LZSL - letisko Sliač

Hodnoty namerané: 09.06.2021, 10:32 SELČ
Aktuálny čas: 29.07.2021, 04:21 SELČ
Aktualizované: pred 1193:49 hod.
Teplota: 25°C
Rosný bod: 11°C
Vietor: 7 km/h 130° (JV)
Dohľadnosť: viac ako 10 km
Stav počasia: bez zrážok
Oblačnosť: malá oblačnosť na 1219 m
Základňa oblačnosti: 1219 m
Vlhkosť vzduchu: 42 %
Tlak vzduchu: 1017 hPa
METAR: LZSL 090832Z 13004KT 9999 FEW040 25/11 Q1017

LZZI - letisko Žilina

Hodnoty namerané: 29.07.2021, 04:00 SELČ
Aktuálny čas: 29.07.2021, 04:21 SELČ
Aktualizované: pred 21 min.
Teplota: 19°C
Rosný bod: 18°C
Vietor: 7 km/h 320° (SZ) kolíše v rozsahu 270°-340° (Z-SSZ)
Dohľadnosť: viac ako 10 km
Stav počasia: bez zrážok
Oblačnosť: zamračené na 671 m
Základňa oblačnosti: 671 m
Vlhkosť vzduchu: 94 %
Tlak vzduchu: 1013 hPa
METAR: LZZI 290200Z 32004KT 270V340 9999 OVC022 19/18 Q1013

POZNÁMKY:

SEČ - stredoeurópsky čas (UTC+1hod.)

SELČ - stredoeurópsky letný čas (UTC+2hod.)

UTC - univerzálny svetový čas, GMT, ZULU

METAR - sú pravidelné kódované letecké meteorologické správy. Tie zostavujú a zverejňujú meteorologické stanice letísk v polhodinových/hodinových intervaloch. Na tejto stránke správy METAR zo slovenských letísk nájdete už v dekódovanej podobe.

hore